sensor_id;sensor_type;location;lat;lon;timestamp;temperature;humidity
80412;SHT30;69749;42.684;23.360;2023-07-29T00:01:42;21.55;49.92
80412;SHT30;69749;42.684;23.360;2023-07-29T00:04:08;21.57;50.06
80412;SHT30;69749;42.684;23.360;2023-07-29T00:06:35;21.55;49.98
80412;SHT30;69749;42.684;23.360;2023-07-29T00:09:00;21.47;50.04
80412;SHT30;69749;42.684;23.360;2023-07-29T00:11:25;21.51;50.10
80412;SHT30;69749;42.684;23.360;2023-07-29T00:13:51;21.47;50.28
80412;SHT30;69749;42.684;23.360;2023-07-29T00:16:18;21.44;50.45
80412;SHT30;69749;42.684;23.360;2023-07-29T00:18:43;21.41;50.37
80412;SHT30;69749;42.684;23.360;2023-07-29T00:21:09;21.39;50.50
80412;SHT30;69749;42.684;23.360;2023-07-29T00:23:34;21.37;50.48
80412;SHT30;69749;42.684;23.360;2023-07-29T00:26:00;21.33;50.74
80412;SHT30;69749;42.684;23.360;2023-07-29T00:28:25;21.23;50.92
80412;SHT30;69749;42.684;23.360;2023-07-29T00:30:51;21.22;50.99
80412;SHT30;69749;42.684;23.360;2023-07-29T00:33:16;21.22;50.97
80412;SHT30;69749;42.684;23.360;2023-07-29T00:35:41;21.09;51.21
80412;SHT30;69749;42.684;23.360;2023-07-29T00:38:07;20.98;51.65
80412;SHT30;69749;42.684;23.360;2023-07-29T00:40:35;20.93;51.72
80412;SHT30;69749;42.684;23.360;2023-07-29T00:43:00;20.92;51.82
80412;SHT30;69749;42.684;23.360;2023-07-29T00:45:27;20.88;51.93
80412;SHT30;69749;42.684;23.360;2023-07-29T00:47:54;20.81;52.17
80412;SHT30;69749;42.684;23.360;2023-07-29T00:50:19;20.81;52.27
80412;SHT30;69749;42.684;23.360;2023-07-29T00:52:45;20.79;52.35
80412;SHT30;69749;42.684;23.360;2023-07-29T00:55:11;20.73;51.96
80412;SHT30;69749;42.684;23.360;2023-07-29T00:57:37;20.76;51.99
80412;SHT30;69749;42.684;23.360;2023-07-29T01:00:03;20.78;52.04
80412;SHT30;69749;42.684;23.360;2023-07-29T01:02:30;20.78;51.94
80412;SHT30;69749;42.684;23.360;2023-07-29T01:04:58;20.82;51.97
80412;SHT30;69749;42.684;23.360;2023-07-29T01:12:49;20.49;52.79
80412;SHT30;69749;42.684;23.360;2023-07-29T01:17:55;20.58;52.62
80412;SHT30;69749;42.684;23.360;2023-07-29T01:20:25;20.56;52.77
80412;SHT30;69749;42.684;23.360;2023-07-29T01:22:51;20.56;52.83
80412;SHT30;69749;42.684;23.360;2023-07-29T01:25:17;20.59;52.99
80412;SHT30;69749;42.684;23.360;2023-07-29T01:27:45;20.61;53.00
80412;SHT30;69749;42.684;23.360;2023-07-29T01:30:11;20.62;52.74
80412;SHT30;69749;42.684;23.360;2023-07-29T01:32:55;20.58;52.77
80412;SHT30;69749;42.684;23.360;2023-07-29T01:38:10;20.58;52.63
80412;SHT30;69749;42.684;23.360;2023-07-29T01:40:39;20.56;52.69
80412;SHT30;69749;42.684;23.360;2023-07-29T01:43:05;20.55;52.77
80412;SHT30;69749;42.684;23.360;2023-07-29T01:45:32;20.54;52.57
80412;SHT30;69749;42.684;23.360;2023-07-29T01:48:01;20.52;52.53
80412;SHT30;69749;42.684;23.360;2023-07-29T01:50:27;20.52;52.40
80412;SHT30;69749;42.684;23.360;2023-07-29T01:52:52;20.48;52.39
80412;SHT30;69749;42.684;23.360;2023-07-29T01:55:17;20.49;52.61
80412;SHT30;69749;42.684;23.360;2023-07-29T01:57:43;20.49;52.63
80412;SHT30;69749;42.684;23.360;2023-07-29T02:00:10;20.47;51.73
80412;SHT30;69749;42.684;23.360;2023-07-29T02:02:35;20.40;52.42
80412;SHT30;69749;42.684;23.360;2023-07-29T02:05:01;20.38;52.81
80412;SHT30;69749;42.684;23.360;2023-07-29T02:07:26;20.35;52.84
80412;SHT30;69749;42.684;23.360;2023-07-29T02:09:52;20.35;52.97
80412;SHT30;69749;42.684;23.360;2023-07-29T02:12:17;20.40;53.08
80412;SHT30;69749;42.684;23.360;2023-07-29T02:14:42;20.37;53.10
80412;SHT30;69749;42.684;23.360;2023-07-29T02:17:08;20.33;53.04
80412;SHT30;69749;42.684;23.360;2023-07-29T02:19:34;20.30;53.16
80412;SHT30;69749;42.684;23.360;2023-07-29T02:22:00;20.27;53.47
80412;SHT30;69749;42.684;23.360;2023-07-29T02:24:25;20.27;53.37
80412;SHT30;69749;42.684;23.360;2023-07-29T02:26:51;20.28;53.30
80412;SHT30;69749;42.684;23.360;2023-07-29T02:29:16;20.27;53.69
80412;SHT30;69749;42.684;23.360;2023-07-29T02:31:41;20.23;53.93
80412;SHT30;69749;42.684;23.360;2023-07-29T02:34:09;20.20;54.16
80412;SHT30;69749;42.684;23.360;2023-07-29T02:36:34;20.18;54.22
80412;SHT30;69749;42.684;23.360;2023-07-29T02:39:00;20.07;54.33
80412;SHT30;69749;42.684;23.360;2023-07-29T02:41:25;20.09;54.57
80412;SHT30;69749;42.684;23.360;2023-07-29T02:43:51;20.09;54.55
80412;SHT30;69749;42.684;23.360;2023-07-29T02:46:17;20.03;54.55
80412;SHT30;69749;42.684;23.360;2023-07-29T02:48:43;19.96;54.75
80412;SHT30;69749;42.684;23.360;2023-07-29T02:51:09;19.96;54.88
80412;SHT30;69749;42.684;23.360;2023-07-29T02:53:34;19.96;54.92
80412;SHT30;69749;42.684;23.360;2023-07-29T02:56:04;20.00;54.87
80412;SHT30;69749;42.684;23.360;2023-07-29T02:58:31;20.03;54.80
80412;SHT30;69749;42.684;23.360;2023-07-29T03:01:00;20.03;54.93
80412;SHT30;69749;42.684;23.360;2023-07-29T03:03:27;20.00;55.12
80412;SHT30;69749;42.684;23.360;2023-07-29T03:06:01;20.00;55.25
80412;SHT30;69749;42.684;23.360;2023-07-29T03:08:27;19.96;55.27
80412;SHT30;69749;42.684;23.360;2023-07-29T03:10:53;19.96;55.22
80412;SHT30;69749;42.684;23.360;2023-07-29T03:13:19;19.97;55.13
80412;SHT30;69749;42.684;23.360;2023-07-29T03:15:44;19.97;55.19
80412;SHT30;69749;42.684;23.360;2023-07-29T03:18:10;19.94;55.41
80412;SHT30;69749;42.684;23.360;2023-07-29T03:20:36;19.93;55.49
80412;SHT30;69749;42.684;23.360;2023-07-29T03:23:02;19.93;55.37
80412;SHT30;69749;42.684;23.360;2023-07-29T03:25:28;19.90;55.27
80412;SHT30;69749;42.684;23.360;2023-07-29T03:27:54;19.92;54.89
80412;SHT30;69749;42.684;23.360;2023-07-29T03:30:20;19.90;54.70
80412;SHT30;69749;42.684;23.360;2023-07-29T03:32:46;19.89;54.62
80412;SHT30;69749;42.684;23.360;2023-07-29T03:35:12;19.89;54.65
80412;SHT30;69749;42.684;23.360;2023-07-29T03:37:38;19.87;54.75
80412;SHT30;69749;42.684;23.360;2023-07-29T03:40:04;19.82;54.91
80412;SHT30;69749;42.684;23.360;2023-07-29T03:42:29;19.79;54.95
80412;SHT30;69749;42.684;23.360;2023-07-29T03:44:55;19.82;54.57
80412;SHT30;69749;42.684;23.360;2023-07-29T03:47:20;19.86;54.37
80412;SHT30;69749;42.684;23.360;2023-07-29T03:49:46;19.85;54.36
80412;SHT30;69749;42.684;23.360;2023-07-29T03:52:11;19.63;55.16
80412;SHT30;69749;42.684;23.360;2023-07-29T03:54:36;19.51;55.67
80412;SHT30;69749;42.684;23.360;2023-07-29T03:57:02;19.42;55.82
80412;SHT30;69749;42.684;23.360;2023-07-29T03:59:27;19.42;55.77
80412;SHT30;69749;42.684;23.360;2023-07-29T04:01:53;19.12;56.54
80412;SHT30;69749;42.684;23.360;2023-07-29T04:04:19;19.05;56.65
80412;SHT30;69749;42.684;23.360;2023-07-29T04:06:44;18.98;57.07
80412;SHT30;69749;42.684;23.360;2023-07-29T04:09:09;19.00;57.06
80412;SHT30;69749;42.684;23.360;2023-07-29T04:11:35;19.08;56.76
80412;SHT30;69749;42.684;23.360;2023-07-29T04:14:00;19.15;56.46
80412;SHT30;69749;42.684;23.360;2023-07-29T04:16:26;19.21;56.49
80412;SHT30;69749;42.684;23.360;2023-07-29T04:18:51;19.25;56.21
80412;SHT30;69749;42.684;23.360;2023-07-29T04:21:17;19.26;55.96
80412;SHT30;69749;42.684;23.360;2023-07-29T04:23:42;19.28;56.01
80412;SHT30;69749;42.684;23.360;2023-07-29T04:26:07;19.36;55.79
80412;SHT30;69749;42.684;23.360;2023-07-29T04:28:33;19.31;55.77
80412;SHT30;69749;42.684;23.360;2023-07-29T04:30:58;19.31;55.94
80412;SHT30;69749;42.684;23.360;2023-07-29T04:33:24;19.35;55.95
80412;SHT30;69749;42.684;23.360;2023-07-29T04:35:50;19.39;55.31
80412;SHT30;69749;42.684;23.360;2023-07-29T04:38:15;19.54;55.19
80412;SHT30;69749;42.684;23.360;2023-07-29T04:40:41;19.61;55.17
80412;SHT30;69749;42.684;23.360;2023-07-29T04:43:06;19.66;54.68
80412;SHT30;69749;42.684;23.360;2023-07-29T04:45:31;19.67;54.71
80412;SHT30;69749;42.684;23.360;2023-07-29T04:47:58;19.61;54.73
80412;SHT30;69749;42.684;23.360;2023-07-29T04:50:24;19.51;54.80
80412;SHT30;69749;42.684;23.360;2023-07-29T04:52:49;19.65;54.42
80412;SHT30;69749;42.684;23.360;2023-07-29T04:55:14;19.65;54.13
80412;SHT30;69749;42.684;23.360;2023-07-29T04:57:40;19.70;54.19
80412;SHT30;69749;42.684;23.360;2023-07-29T05:00:06;19.72;54.19
80412;SHT30;69749;42.684;23.360;2023-07-29T05:02:31;19.70;54.19
80412;SHT30;69749;42.684;23.360;2023-07-29T05:04:57;19.80;53.90
80412;SHT30;69749;42.684;23.360;2023-07-29T05:07:22;19.89;53.82
80412;SHT30;69749;42.684;23.360;2023-07-29T05:09:48;19.96;53.60
80412;SHT30;69749;42.684;23.360;2023-07-29T05:12:13;20.10;53.57
80412;SHT30;69749;42.684;23.360;2023-07-29T05:14:39;20.17;53.38
80412;SHT30;69749;42.684;23.360;2023-07-29T05:17:05;20.31;53.25
80412;SHT30;69749;42.684;23.360;2023-07-29T05:19:30;20.45;53.00
80412;SHT30;69749;42.684;23.360;2023-07-29T05:21:56;20.62;52.68
80412;SHT30;69749;42.684;23.360;2023-07-29T05:24:22;20.75;52.63
80412;SHT30;69749;42.684;23.360;2023-07-29T05:26:48;20.86;52.44
80412;SHT30;69749;42.684;23.360;2023-07-29T05:29:13;21.10;52.24
80412;SHT30;69749;42.684;23.360;2023-07-29T05:31:39;21.31;51.37
80412;SHT30;69749;42.684;23.360;2023-07-29T05:34:04;21.53;51.10
80412;SHT30;69749;42.684;23.360;2023-07-29T05:36:30;21.80;50.15
80412;SHT30;69749;42.684;23.360;2023-07-29T05:38:55;22.05;49.89
80412;SHT30;69749;42.684;23.360;2023-07-29T05:41:21;22.26;49.14
80412;SHT30;69749;42.684;23.360;2023-07-29T05:43:46;22.48;48.43
80412;SHT30;69749;42.684;23.360;2023-07-29T05:46:12;22.64;47.74
80412;SHT30;69749;42.684;23.360;2023-07-29T05:48:37;22.94;47.63
80412;SHT30;69749;42.684;23.360;2023-07-29T05:51:03;23.27;46.78
80412;SHT30;69749;42.684;23.360;2023-07-29T05:53:30;23.55;45.72
80412;SHT30;69749;42.684;23.360;2023-07-29T05:55:56;23.86;44.94
80412;SHT30;69749;42.684;23.360;2023-07-29T05:58:21;24.18;44.42
80412;SHT30;69749;42.684;23.360;2023-07-29T06:00:47;24.55;44.32
80412;SHT30;69749;42.684;23.360;2023-07-29T06:03:12;24.89;43.22
80412;SHT30;69749;42.684;23.360;2023-07-29T06:05:38;25.20;43.00
80412;SHT30;69749;42.684;23.360;2023-07-29T06:08:04;25.51;41.74
80412;SHT30;69749;42.684;23.360;2023-07-29T06:10:29;26.08;40.59
80412;SHT30;69749;42.684;23.360;2023-07-29T06:12:55;26.39;40.33
80412;SHT30;69749;42.684;23.360;2023-07-29T06:15:20;26.80;38.66
80412;SHT30;69749;42.684;23.360;2023-07-29T06:17:48;27.39;37.63
80412;SHT30;69749;42.684;23.360;2023-07-29T06:20:13;28.30;36.34
80412;SHT30;69749;42.684;23.360;2023-07-29T06:22:39;29.59;34.70
80412;SHT30;69749;42.684;23.360;2023-07-29T06:25:04;30.86;32.15
80412;SHT30;69749;42.684;23.360;2023-07-29T06:27:29;32.13;30.62
80412;SHT30;69749;42.684;23.360;2023-07-29T06:29:55;33.35;28.80
80412;SHT30;69749;42.684;23.360;2023-07-29T06:32:20;34.00;27.58
80412;SHT30;69749;42.684;23.360;2023-07-29T06:34:46;35.05;26.26
80412;SHT30;69749;42.684;23.360;2023-07-29T06:37:11;35.22;26.08
80412;SHT30;69749;42.684;23.360;2023-07-29T06:39:37;35.64;25.48
80412;SHT30;69749;42.684;23.360;2023-07-29T06:42:02;37.16;24.22
80412;SHT30;69749;42.684;23.360;2023-07-29T06:44:28;38.09;23.04
80412;SHT30;69749;42.684;23.360;2023-07-29T06:46:53;38.87;22.56
80412;SHT30;69749;42.684;23.360;2023-07-29T06:49:18;39.68;21.67
80412;SHT30;69749;42.684;23.360;2023-07-29T06:51:44;40.43;20.89
80412;SHT30;69749;42.684;23.360;2023-07-29T06:54:09;40.85;20.47
80412;SHT30;69749;42.684;23.360;2023-07-29T06:56:35;40.76;20.51
80412;SHT30;69749;42.684;23.360;2023-07-29T06:59:00;41.47;19.85
80412;SHT30;69749;42.684;23.360;2023-07-29T07:01:25;42.04;19.37
80412;SHT30;69749;42.684;23.360;2023-07-29T07:03:51;42.69;18.87
80412;SHT30;69749;42.684;23.360;2023-07-29T07:06:20;43.17;18.62
80412;SHT30;69749;42.684;23.360;2023-07-29T07:08:46;43.18;18.55
80412;SHT30;69749;42.684;23.360;2023-07-29T07:11:11;43.42;18.49
80412;SHT30;69749;42.684;23.360;2023-07-29T07:13:36;43.06;18.27
80412;SHT30;69749;42.684;23.360;2023-07-29T07:16:02;43.07;18.60
80412;SHT30;69749;42.684;23.360;2023-07-29T07:18:27;43.78;17.88
80412;SHT30;69749;42.684;23.360;2023-07-29T07:20:53;43.39;18.23
80412;SHT30;69749;42.684;23.360;2023-07-29T07:23:18;43.24;18.19
80412;SHT30;69749;42.684;23.360;2023-07-29T07:25:44;43.18;18.48
80412;SHT30;69749;42.684;23.360;2023-07-29T07:28:10;42.80;18.46
80412;SHT30;69749;42.684;23.360;2023-07-29T07:30:35;42.63;18.65
80412;SHT30;69749;42.684;23.360;2023-07-29T07:33:01;42.29;19.20
80412;SHT30;69749;42.684;23.360;2023-07-29T07:35:26;41.71;19.50
80412;SHT30;69749;42.684;23.360;2023-07-29T07:37:52;41.22;19.95
80412;SHT30;69749;42.684;23.360;2023-07-29T07:40:17;40.41;20.64
80412;SHT30;69749;42.684;23.360;2023-07-29T07:42:43;39.52;21.33
80412;SHT30;69749;42.684;23.360;2023-07-29T07:45:08;38.80;21.89
80412;SHT30;69749;42.684;23.360;2023-07-29T07:47:34;38.13;22.48
80412;SHT30;69749;42.684;23.360;2023-07-29T07:49:59;37.66;23.53
80412;SHT30;69749;42.684;23.360;2023-07-29T07:52:24;37.35;23.51
80412;SHT30;69749;42.684;23.360;2023-07-29T07:54:54;37.28;23.57
80412;SHT30;69749;42.684;23.360;2023-07-29T07:57:22;36.09;24.26
80412;SHT30;69749;42.684;23.360;2023-07-29T07:59:47;35.77;24.87
80412;SHT30;69749;42.684;23.360;2023-07-29T08:02:13;35.55;25.13
80412;SHT30;69749;42.684;23.360;2023-07-29T08:04:39;35.25;25.82
80412;SHT30;69749;42.684;23.360;2023-07-29T08:07:05;34.99;25.91
80412;SHT30;69749;42.684;23.360;2023-07-29T08:09:30;34.96;26.38
80412;SHT30;69749;42.684;23.360;2023-07-29T08:11:55;35.05;25.86
80412;SHT30;69749;42.684;23.360;2023-07-29T08:14:21;34.89;26.07
80412;SHT30;69749;42.684;23.360;2023-07-29T08:16:46;34.91;25.91
80412;SHT30;69749;42.684;23.360;2023-07-29T08:19:12;35.02;25.45
80412;SHT30;69749;42.684;23.360;2023-07-29T08:21:38;34.96;25.42
80412;SHT30;69749;42.684;23.360;2023-07-29T08:24:03;34.59;25.99
80412;SHT30;69749;42.684;23.360;2023-07-29T08:26:29;34.55;26.30
80412;SHT30;69749;42.684;23.360;2023-07-29T08:28:54;34.24;26.01
80412;SHT30;69749;42.684;23.360;2023-07-29T08:31:20;34.11;26.58
80412;SHT30;69749;42.684;23.360;2023-07-29T08:33:45;33.98;26.59
80412;SHT30;69749;42.684;23.360;2023-07-29T08:36:10;33.98;26.82
80412;SHT30;69749;42.684;23.360;2023-07-29T08:38:36;34.01;25.88
80412;SHT30;69749;42.684;23.360;2023-07-29T08:41:25;34.13;25.75
80412;SHT30;69749;42.684;23.360;2023-07-29T08:43:56;34.00;25.82
80412;SHT30;69749;42.684;23.360;2023-07-29T08:46:25;33.77;25.85
80412;SHT30;69749;42.684;23.360;2023-07-29T08:48:51;33.56;25.95
80412;SHT30;69749;42.684;23.360;2023-07-29T08:51:17;33.25;26.23
80412;SHT30;69749;42.684;23.360;2023-07-29T08:53:42;33.12;26.51
80412;SHT30;69749;42.684;23.360;2023-07-29T08:56:08;33.08;26.81
80412;SHT30;69749;42.684;23.360;2023-07-29T08:58:34;33.14;27.07
80412;SHT30;69749;42.684;23.360;2023-07-29T09:01:00;33.09;27.24
80412;SHT30;69749;42.684;23.360;2023-07-29T09:03:26;33.07;27.47
80412;SHT30;69749;42.684;23.360;2023-07-29T09:05:52;33.26;26.98
80412;SHT30;69749;42.684;23.360;2023-07-29T09:08:19;33.04;26.46
80412;SHT30;69749;42.684;23.360;2023-07-29T09:10:44;32.92;26.14
80412;SHT30;69749;42.684;23.360;2023-07-29T09:13:10;32.98;26.23
80412;SHT30;69749;42.684;23.360;2023-07-29T09:15:36;33.05;25.68
80412;SHT30;69749;42.684;23.360;2023-07-29T09:18:28;33.21;26.47
80412;SHT30;69749;42.684;23.360;2023-07-29T09:20:54;33.35;25.75
80412;SHT30;69749;42.684;23.360;2023-07-29T09:23:24;33.35;25.28
80412;SHT30;69749;42.684;23.360;2023-07-29T09:25:49;33.38;24.63
80412;SHT30;69749;42.684;23.360;2023-07-29T09:28:16;33.43;25.04
80412;SHT30;69749;42.684;23.360;2023-07-29T09:30:44;33.55;24.96
80412;SHT30;69749;42.684;23.360;2023-07-29T09:33:10;33.59;24.60
80412;SHT30;69749;42.684;23.360;2023-07-29T09:35:36;33.25;24.33
80412;SHT30;69749;42.684;23.360;2023-07-29T09:38:03;33.19;24.52
80412;SHT30;69749;42.684;23.360;2023-07-29T09:40:38;33.28;23.05
80412;SHT30;69749;42.684;23.360;2023-07-29T09:43:05;33.12;23.91
80412;SHT30;69749;42.684;23.360;2023-07-29T09:45:34;33.14;23.91
80412;SHT30;69749;42.684;23.360;2023-07-29T09:48:00;32.91;24.26
80412;SHT30;69749;42.684;23.360;2023-07-29T09:50:26;32.74;24.55
80412;SHT30;69749;42.684;23.360;2023-07-29T09:52:53;32.63;24.20
80412;SHT30;69749;42.684;23.360;2023-07-29T09:55:22;32.72;24.37
80412;SHT30;69749;42.684;23.360;2023-07-29T09:57:58;32.68;24.05
80412;SHT30;69749;42.684;23.360;2023-07-29T10:00:30;32.53;24.30
80412;SHT30;69749;42.684;23.360;2023-07-29T10:02:56;32.32;24.66
80412;SHT30;69749;42.684;23.360;2023-07-29T10:05:22;32.26;24.68
80412;SHT30;69749;42.684;23.360;2023-07-29T10:07:48;32.33;24.69
80412;SHT30;69749;42.684;23.360;2023-07-29T10:10:15;32.29;25.31
80412;SHT30;69749;42.684;23.360;2023-07-29T10:12:41;32.16;25.32
80412;SHT30;69749;42.684;23.360;2023-07-29T10:15:08;32.08;25.03
80412;SHT30;69749;42.684;23.360;2023-07-29T10:17:36;31.96;25.83
80412;SHT30;69749;42.684;23.360;2023-07-29T10:20:04;31.84;26.50
80412;SHT30;69749;42.684;23.360;2023-07-29T10:22:36;31.93;25.70
80412;SHT30;69749;42.684;23.360;2023-07-29T10:25:04;32.08;25.72
80412;SHT30;69749;42.684;23.360;2023-07-29T10:30:11;31.96;25.43
80412;SHT30;69749;42.684;23.360;2023-07-29T10:32:38;32.05;26.31
80412;SHT30;69749;42.684;23.360;2023-07-29T10:35:04;31.66;25.59
80412;SHT30;69749;42.684;23.360;2023-07-29T10:37:29;31.61;25.92
80412;SHT30;69749;42.684;23.360;2023-07-29T10:39:56;31.66;25.89
80412;SHT30;69749;42.684;23.360;2023-07-29T10:42:21;31.74;26.19
80412;SHT30;69749;42.684;23.360;2023-07-29T10:44:53;31.79;26.50
80412;SHT30;69749;42.684;23.360;2023-07-29T10:49:48;31.92;25.70
80412;SHT30;69749;42.684;23.360;2023-07-29T10:52:29;31.89;26.07
80412;SHT30;69749;42.684;23.360;2023-07-29T10:54:56;31.85;26.48
80412;SHT30;69749;42.684;23.360;2023-07-29T10:57:38;31.90;26.24
80412;SHT30;69749;42.684;23.360;2023-07-29T11:00:06;31.95;25.59
80412;SHT30;69749;42.684;23.360;2023-07-29T11:02:35;31.96;25.41
80412;SHT30;69749;42.684;23.360;2023-07-29T11:05:16;32.02;25.14
80412;SHT30;69749;42.684;23.360;2023-07-29T11:10:11;32.06;25.80
80412;SHT30;69749;42.684;23.360;2023-07-29T11:15:16;32.06;25.36
80412;SHT30;69749;42.684;23.360;2023-07-29T11:18:01;32.05;25.25
80412;SHT30;69749;42.684;23.360;2023-07-29T11:20:32;32.03;25.27
80412;SHT30;69749;42.684;23.360;2023-07-29T11:23:00;31.93;25.26
80412;SHT30;69749;42.684;23.360;2023-07-29T11:25:28;31.99;25.60
80412;SHT30;69749;42.684;23.360;2023-07-29T11:27:55;31.93;24.45
80412;SHT30;69749;42.684;23.360;2023-07-29T11:30:21;31.85;24.31
80412;SHT30;69749;42.684;23.360;2023-07-29T11:32:53;31.85;24.71
80412;SHT30;69749;42.684;23.360;2023-07-29T11:35:18;31.92;25.12
80412;SHT30;69749;42.684;23.360;2023-07-29T11:37:46;31.96;24.57
80412;SHT30;69749;42.684;23.360;2023-07-29T11:40:29;31.99;24.72
80412;SHT30;69749;42.684;23.360;2023-07-29T11:42:54;31.97;24.83
80412;SHT30;69749;42.684;23.360;2023-07-29T11:45:22;31.96;25.05
80412;SHT30;69749;42.684;23.360;2023-07-29T11:47:48;31.95;25.48
80412;SHT30;69749;42.684;23.360;2023-07-29T11:50:14;32.01;24.67
80412;SHT30;69749;42.684;23.360;2023-07-29T11:52:41;31.95;24.80
80412;SHT30;69749;42.684;23.360;2023-07-29T11:55:08;31.97;24.40
80412;SHT30;69749;42.684;23.360;2023-07-29T11:57:36;32.01;24.96
80412;SHT30;69749;42.684;23.360;2023-07-29T12:00:03;32.06;24.94
80412;SHT30;69749;42.684;23.360;2023-07-29T12:02:30;32.08;24.76
80412;SHT30;69749;42.684;23.360;2023-07-29T12:04:56;32.12;25.02
80412;SHT30;69749;42.684;23.360;2023-07-29T12:07:22;32.16;25.15
80412;SHT30;69749;42.684;23.360;2023-07-29T12:09:48;31.55;24.37
80412;SHT30;69749;42.684;23.360;2023-07-29T12:12:14;31.62;24.50
80412;SHT30;69749;42.684;23.360;2023-07-29T12:14:46;31.65;24.61
80412;SHT30;69749;42.684;23.360;2023-07-29T12:17:14;31.57;24.66
80412;SHT30;69749;42.684;23.360;2023-07-29T12:19:41;31.31;24.96
80412;SHT30;69749;42.684;23.360;2023-07-29T12:22:08;31.31;24.91
80412;SHT30;69749;42.684;23.360;2023-07-29T12:24:36;31.38;25.15
80412;SHT30;69749;42.684;23.360;2023-07-29T12:27:01;31.49;25.68
80412;SHT30;69749;42.684;23.360;2023-07-29T12:29:27;31.59;25.86
80412;SHT30;69749;42.684;23.360;2023-07-29T12:31:58;31.69;25.91
80412;SHT30;69749;42.684;23.360;2023-07-29T12:34:26;31.76;26.26
80412;SHT30;69749;42.684;23.360;2023-07-29T12:36:52;31.82;25.20
80412;SHT30;69749;42.684;23.360;2023-07-29T12:39:20;31.93;25.15
80412;SHT30;69749;42.684;23.360;2023-07-29T12:41:46;31.96;24.41
80412;SHT30;69749;42.684;23.360;2023-07-29T12:44:12;32.05;24.44
80412;SHT30;69749;42.684;23.360;2023-07-29T12:46:37;32.08;25.13
80412;SHT30;69749;42.684;23.360;2023-07-29T12:49:03;32.10;24.86
80412;SHT30;69749;42.684;23.360;2023-07-29T12:51:28;32.13;24.71
80412;SHT30;69749;42.684;23.360;2023-07-29T12:53:54;32.16;24.61
80412;SHT30;69749;42.684;23.360;2023-07-29T12:56:19;32.13;24.24
80412;SHT30;69749;42.684;23.360;2023-07-29T12:58:45;32.12;24.57
80412;SHT30;69749;42.684;23.360;2023-07-29T13:01:11;32.22;23.60
80412;SHT30;69749;42.684;23.360;2023-07-29T13:03:42;32.27;23.74
80412;SHT30;69749;42.684;23.360;2023-07-29T13:06:07;32.36;23.42
80412;SHT30;69749;42.684;23.360;2023-07-29T13:08:32;32.36;22.77
80412;SHT30;69749;42.684;23.360;2023-07-29T13:10:58;32.43;23.29
80412;SHT30;69749;42.684;23.360;2023-07-29T13:13:23;32.50;23.17
80412;SHT30;69749;42.684;23.360;2023-07-29T13:15:49;32.54;22.84
80412;SHT30;69749;42.684;23.360;2023-07-29T13:18:14;32.53;23.96
80412;SHT30;69749;42.684;23.360;2023-07-29T13:20:39;32.49;23.47
80412;SHT30;69749;42.684;23.360;2023-07-29T13:23:05;32.45;23.32
80412;SHT30;69749;42.684;23.360;2023-07-29T13:25:30;32.40;24.35
80412;SHT30;69749;42.684;23.360;2023-07-29T13:27:56;32.32;23.73
80412;SHT30;69749;42.684;23.360;2023-07-29T13:30:21;32.32;23.48
80412;SHT30;69749;42.684;23.360;2023-07-29T13:32:46;32.32;23.62
80412;SHT30;69749;42.684;23.360;2023-07-29T13:35:12;32.24;23.52
80412;SHT30;69749;42.684;23.360;2023-07-29T13:37:37;32.33;23.31
80412;SHT30;69749;42.684;23.360;2023-07-29T13:40:03;32.37;23.48
80412;SHT30;69749;42.684;23.360;2023-07-29T13:42:28;32.40;23.42
80412;SHT30;69749;42.684;23.360;2023-07-29T13:44:54;32.39;23.33
80412;SHT30;69749;42.684;23.360;2023-07-29T13:47:19;32.45;21.44
80412;SHT30;69749;42.684;23.360;2023-07-29T13:49:45;32.50;20.99
80412;SHT30;69749;42.684;23.360;2023-07-29T13:52:10;32.51;20.77
80412;SHT30;69749;42.684;23.360;2023-07-29T13:54:36;32.54;21.72
80412;SHT30;69749;42.684;23.360;2023-07-29T13:57:01;32.44;20.81
80412;SHT30;69749;42.684;23.360;2023-07-29T13:59:27;32.45;20.66
80412;SHT30;69749;42.684;23.360;2023-07-29T14:01:52;32.40;21.20
80412;SHT30;69749;42.684;23.360;2023-07-29T14:04:17;32.39;21.64
80412;SHT30;69749;42.684;23.360;2023-07-29T14:06:43;32.33;21.96
80412;SHT30;69749;42.684;23.360;2023-07-29T14:09:08;32.33;21.75
80412;SHT30;69749;42.684;23.360;2023-07-29T14:11:34;32.32;21.46
80412;SHT30;69749;42.684;23.360;2023-07-29T14:13:59;32.29;21.84
80412;SHT30;69749;42.684;23.360;2023-07-29T14:16:24;32.20;21.79
80412;SHT30;69749;42.684;23.360;2023-07-29T14:18:50;32.17;21.67
80412;SHT30;69749;42.684;23.360;2023-07-29T14:21:15;32.14;21.98
80412;SHT30;69749;42.684;23.360;2023-07-29T14:23:41;32.10;22.11
80412;SHT30;69749;42.684;23.360;2023-07-29T14:26:06;32.03;22.35
80412;SHT30;69749;42.684;23.360;2023-07-29T14:28:35;31.99;22.72
80412;SHT30;69749;42.684;23.360;2023-07-29T14:31:00;31.89;22.91
80412;SHT30;69749;42.684;23.360;2023-07-29T14:33:26;31.84;25.45
80412;SHT30;69749;42.684;23.360;2023-07-29T14:35:51;31.75;27.77
80412;SHT30;69749;42.684;23.360;2023-07-29T14:38:17;31.69;28.54
80412;SHT30;69749;42.684;23.360;2023-07-29T14:40:42;31.68;28.80
80412;SHT30;69749;42.684;23.360;2023-07-29T14:43:07;31.65;29.14
80412;SHT30;69749;42.684;23.360;2023-07-29T14:45:33;31.52;29.83
80412;SHT30;69749;42.684;23.360;2023-07-29T14:47:58;31.45;30.40
80412;SHT30;69749;42.684;23.360;2023-07-29T14:50:23;31.42;29.36
80412;SHT30;69749;42.684;23.360;2023-07-29T14:52:49;31.42;29.60
80412;SHT30;69749;42.684;23.360;2023-07-29T14:55:14;31.39;29.32
80412;SHT30;69749;42.684;23.360;2023-07-29T14:57:40;31.35;29.51
80412;SHT30;69749;42.684;23.360;2023-07-29T15:00:06;31.33;29.87
80412;SHT30;69749;42.684;23.360;2023-07-29T15:02:32;31.33;29.95
80412;SHT30;69749;42.684;23.360;2023-07-29T15:04:58;31.37;29.96
80412;SHT30;69749;42.684;23.360;2023-07-29T15:07:23;31.34;30.43
80412;SHT30;69749;42.684;23.360;2023-07-29T15:09:49;31.23;30.61
80412;SHT30;69749;42.684;23.360;2023-07-29T15:12:14;31.17;30.72
80412;SHT30;69749;42.684;23.360;2023-07-29T15:14:39;31.06;31.15
80412;SHT30;69749;42.684;23.360;2023-07-29T15:17:05;31.00;30.56
80412;SHT30;69749;42.684;23.360;2023-07-29T15:19:31;30.94;31.28
80412;SHT30;69749;42.684;23.360;2023-07-29T15:21:57;30.93;30.69
80412;SHT30;69749;42.684;23.360;2023-07-29T15:24:22;30.83;31.01
80412;SHT30;69749;42.684;23.360;2023-07-29T15:26:48;30.75;30.85
80412;SHT30;69749;42.684;23.360;2023-07-29T15:29:13;30.70;31.12
80412;SHT30;69749;42.684;23.360;2023-07-29T15:31:40;30.65;31.13